Main page
METAR-TAF:

METAR-TAF

Airports :

Fairfield Municipal Airport

Fairfield, Iowa, United States

latitude: 41-03N, longitude: 091-59W, elevation: 800 ft

Current weather observation

The report was made 12 minutes ago, at 22:15 UTC
Wind 12 mph from the South with gusts up to 17 mph
Temperature 81°F
Humidity 70%
Pressure 29.83 in. Hg
Visibility: 9 miles
Broken clouds at a height of 7000 ft
Overcast at a height of 8000 ft

METAR: KFFL 132215Z AUTO 18010G15KT 9SM BKN070 OVC080 27/21 A2983 RMK A01

Time: 17:27 (22:27 UTC)


TAF: missing

Weather observations and forecasts of more than 4000 airports (METAR and TAF reports).

The available stations are represented by yellow and red dots on the map.

Hover mouse over dot to see the name of the station.

Then click to see weather observations and forecasts.

To change the map : click on the green buttons with a black cross to zoom in, on the green button with a dash to zoom out, or on the green arrows for adjacent maps.


METAR-TAF: